createdAt,value
2022-10-12T00:00:23.638Z,50.58
2022-10-12T00:03:13.234Z,50.50
2022-10-12T00:06:07.273Z,50.68
2022-10-12T00:08:54.067Z,50.79
2022-10-12T00:11:41.248Z,50.51
2022-10-12T00:14:27.379Z,50.76
2022-10-12T00:17:13.090Z,50.87
2022-10-12T00:19:58.926Z,50.65
2022-10-12T00:22:44.970Z,50.82
2022-10-12T00:25:30.843Z,50.44
2022-10-12T00:28:17.116Z,50.60
2022-10-12T00:31:09.016Z,50.62
2022-10-12T00:33:55.499Z,50.78
2022-10-12T00:36:44.703Z,50.67
2022-10-12T00:39:30.883Z,50.90
2022-10-12T00:42:20.616Z,50.77
2022-10-12T00:45:07.273Z,50.79
2022-10-12T00:47:56.688Z,50.86
2022-10-12T00:50:42.347Z,50.90
2022-10-12T00:53:32.060Z,50.88
2022-10-12T00:56:20.396Z,50.57
2022-10-12T00:59:10.319Z,50.75
2022-10-12T01:01:56.541Z,50.59
2022-10-12T01:04:42.968Z,50.53
2022-10-12T01:07:29.114Z,50.84
2022-10-12T01:10:15.001Z,50.69
2022-10-12T01:13:01.125Z,50.85
2022-10-12T01:16:00.035Z,51.02
2022-10-12T01:18:51.984Z,51.17
2022-10-12T01:21:45.191Z,50.79
2022-10-12T01:24:54.295Z,51.18
2022-10-12T01:27:47.583Z,50.98
2022-10-12T01:30:36.770Z,51.07
2022-10-12T01:33:32.905Z,51.05
2022-10-12T01:36:41.203Z,51.10
2022-10-12T01:39:48.243Z,50.80
2022-10-12T01:42:40.071Z,50.90
2022-10-12T01:45:26.459Z,51.06
2022-10-12T01:48:12.482Z,50.83
2022-10-12T01:51:02.553Z,50.93
2022-10-12T01:54:06.923Z,51.23
2022-10-12T01:57:33.697Z,50.99
2022-10-12T02:00:20.348Z,51.03
2022-10-12T02:03:23.001Z,51.15
2022-10-12T02:06:14.483Z,51.04
2022-10-12T02:09:02.666Z,51.26
2022-10-12T02:11:51.042Z,50.98
2022-10-12T02:14:44.186Z,51.34
2022-10-12T02:17:30.758Z,51.34
2022-10-12T02:20:17.545Z,51.06
2022-10-12T02:23:03.562Z,50.98
2022-10-12T02:25:51.701Z,50.99
2022-10-12T02:28:38.756Z,51.01
2022-10-12T02:31:46.953Z,51.25
2022-10-12T02:34:45.463Z,50.97
2022-10-12T02:37:45.461Z,51.31
2022-10-12T02:40:41.310Z,51.40
2022-10-12T02:43:42.645Z,50.98
2022-10-12T02:46:29.439Z,51.16
2022-10-12T02:49:16.824Z,51.03
2022-10-12T02:52:04.488Z,51.18
2022-10-12T02:54:50.115Z,51.35
2022-10-12T02:57:38.431Z,51.36
2022-10-12T03:00:24.767Z,51.42
2022-10-12T03:03:10.600Z,51.06
2022-10-12T03:05:56.715Z,51.62
2022-10-12T03:08:42.648Z,51.28
2022-10-12T03:11:28.635Z,51.63
2022-10-12T03:14:15.244Z,51.63
2022-10-12T03:17:01.526Z,51.49
2022-10-12T03:19:47.584Z,51.36
2022-10-12T03:22:33.422Z,51.43
2022-10-12T03:25:19.285Z,51.34
2022-10-12T03:28:05.554Z,51.26
2022-10-12T03:30:51.436Z,51.43
2022-10-12T03:33:37.242Z,51.51
2022-10-12T03:36:23.033Z,51.81
2022-10-12T03:39:08.878Z,51.50
2022-10-12T03:41:54.586Z,51.58
2022-10-12T03:44:41.134Z,51.52
2022-10-12T03:47:27.223Z,51.60
2022-10-12T03:50:16.589Z,51.56
2022-10-12T03:53:05.620Z,51.48
2022-10-12T03:55:51.895Z,51.45
2022-10-12T03:58:37.918Z,51.44
2022-10-12T04:01:23.780Z,51.75
2022-10-12T04:04:10.990Z,51.72
2022-10-12T04:06:56.951Z,51.58
2022-10-12T04:09:42.741Z,51.65
2022-10-12T04:12:28.602Z,51.63
2022-10-12T04:15:14.787Z,51.66
2022-10-12T04:18:00.590Z,51.58
2022-10-12T04:20:49.643Z,51.58
2022-10-12T04:23:36.035Z,51.58
2022-10-12T04:26:23.240Z,51.76
2022-10-12T04:29:12.012Z,51.96
2022-10-12T04:31:57.702Z,51.66
2022-10-12T04:34:44.115Z,51.91
2022-10-12T04:37:36.999Z,51.47
2022-10-12T04:40:23.330Z,51.63
2022-10-12T04:43:09.226Z,51.79
2022-10-12T04:45:59.013Z,51.75
2022-10-12T04:48:44.887Z,51.73
2022-10-12T04:51:30.822Z,51.82
2022-10-12T04:54:16.440Z,51.48
2022-10-12T04:57:03.477Z,51.69
2022-10-12T04:59:49.311Z,51.84
2022-10-12T05:02:35.113Z,51.57
2022-10-12T05:05:20.829Z,51.71
2022-10-12T05:08:06.695Z,51.92
2022-10-12T05:10:52.831Z,52.03
2022-10-12T05:13:38.987Z,51.61
2022-10-12T05:16:25.316Z,51.59
2022-10-12T05:19:10.951Z,51.76
2022-10-12T05:21:56.661Z,51.84
2022-10-12T05:24:42.574Z,51.81
2022-10-12T05:27:28.511Z,51.84
2022-10-12T05:30:14.317Z,51.69
2022-10-12T05:33:00.413Z,51.58
2022-10-12T05:35:52.145Z,51.58
2022-10-12T05:38:40.873Z,52.08
2022-10-12T05:41:26.837Z,51.60
2022-10-12T05:44:12.660Z,51.51
2022-10-12T05:46:58.374Z,51.89
2022-10-12T05:49:44.371Z,51.85
2022-10-12T05:52:30.192Z,51.81
2022-10-12T05:55:15.924Z,51.40
2022-10-12T05:58:02.019Z,51.42
2022-10-12T06:00:48.035Z,51.42
2022-10-12T06:03:35.132Z,51.56
2022-10-12T06:06:21.461Z,51.76
2022-10-12T06:09:07.920Z,51.67
2022-10-12T06:11:54.235Z,51.64
2022-10-12T06:14:40.314Z,51.45
2022-10-12T06:17:26.343Z,51.55
2022-10-12T06:20:12.915Z,51.65
2022-10-12T06:22:58.946Z,51.55
2022-10-12T06:25:49.519Z,51.62
2022-10-12T06:28:35.552Z,51.28
2022-10-12T06:31:21.520Z,51.35
2022-10-12T06:34:07.570Z,51.38
2022-10-12T06:36:54.696Z,51.21
2022-10-12T06:39:43.117Z,51.36
2022-10-12T06:42:28.970Z,51.46
2022-10-12T06:45:14.710Z,51.13
2022-10-12T06:48:00.718Z,51.11
2022-10-12T06:50:47.295Z,51.03
2022-10-12T06:53:34.995Z,51.03
2022-10-12T06:56:21.479Z,50.98
2022-10-12T06:59:07.240Z,51.33
2022-10-12T07:01:53.223Z,51.27
2022-10-12T07:04:39.239Z,51.20
2022-10-12T07:07:25.237Z,51.29
2022-10-12T07:10:14.102Z,51.26
2022-10-12T07:13:00.193Z,51.19
2022-10-12T07:15:50.157Z,51.26
2022-10-12T07:18:36.191Z,51.23
2022-10-12T07:21:22.183Z,51.42
2022-10-12T07:24:08.926Z,51.26
2022-10-12T07:26:54.708Z,51.43
2022-10-12T07:29:40.833Z,51.47
2022-10-12T07:32:26.665Z,51.41
2022-10-12T07:35:12.483Z,51.29
2022-10-12T07:37:58.207Z,51.43
2022-10-12T07:40:43.909Z,51.31
2022-10-12T07:43:30.765Z,51.19
2022-10-12T07:46:16.886Z,51.18
2022-10-12T07:49:03.243Z,51.08
2022-10-12T07:51:49.113Z,51.13
2022-10-12T07:54:34.902Z,51.03
2022-10-12T07:57:20.706Z,51.00
2022-10-12T08:00:07.346Z,50.87
2022-10-12T08:02:58.246Z,51.01
2022-10-12T08:05:44.492Z,50.86
2022-10-12T08:08:30.719Z,51.01
2022-10-12T08:11:17.474Z,51.14
2022-10-12T08:14:03.725Z,50.79
2022-10-12T08:16:49.961Z,50.87
2022-10-12T08:19:36.614Z,50.71
2022-10-12T08:22:22.517Z,50.90
2022-10-12T08:25:08.889Z,50.74
2022-10-12T08:27:55.059Z,50.82
2022-10-12T08:30:41.077Z,50.74
2022-10-12T08:33:29.386Z,50.75
2022-10-12T08:36:16.297Z,50.57
2022-10-12T08:39:02.198Z,50.51
2022-10-12T08:42:01.427Z,50.59
2022-10-12T08:44:59.690Z,50.36
2022-10-12T08:48:19.116Z,50.33
2022-10-12T08:51:14.857Z,50.34
2022-10-12T08:54:07.964Z,50.23
2022-10-12T08:56:54.801Z,50.07
2022-10-12T08:59:40.606Z,50.03
2022-10-12T09:02:46.665Z,49.87
2022-10-12T09:05:44.925Z,49.78
2022-10-12T09:08:47.043Z,49.60
2022-10-12T09:11:56.013Z,49.56
2022-10-12T09:14:42.187Z,49.28
2022-10-12T09:17:41.001Z,49.31
2022-10-12T09:20:33.195Z,49.17
2022-10-12T09:23:32.484Z,48.68
2022-10-12T09:26:21.022Z,48.98
2022-10-12T09:29:33.384Z,49.12
2022-10-12T09:33:00.381Z,48.94
2022-10-12T09:35:47.217Z,48.86
2022-10-12T09:38:32.947Z,48.78
2022-10-12T09:41:24.596Z,48.80
2022-10-12T09:44:35.626Z,48.70
2022-10-12T09:47:23.443Z,48.51
2022-10-12T09:50:09.466Z,48.42
2022-10-12T09:52:55.455Z,48.61
2022-10-12T09:55:41.421Z,48.61
2022-10-12T09:58:28.260Z,48.50
2022-10-12T10:01:29.262Z,48.26
2022-10-12T10:04:19.123Z,48.33
2022-10-12T10:07:35.390Z,48.13
2022-10-12T10:10:29.210Z,48.01
2022-10-12T10:13:16.645Z,47.93
2022-10-12T10:16:10.678Z,47.95
2022-10-12T10:19:00.189Z,47.79
2022-10-12T10:21:46.153Z,47.79
2022-10-12T10:24:32.500Z,47.67
2022-10-12T10:27:37.256Z,47.61
2022-10-12T10:30:29.654Z,47.45
2022-10-12T10:33:19.196Z,47.49
2022-10-12T10:36:09.093Z,47.35
2022-10-12T10:39:18.291Z,47.33
2022-10-12T10:42:22.656Z,47.06
2022-10-12T10:45:21.170Z,47.01
2022-10-12T10:48:10.590Z,47.04
2022-10-12T10:51:05.511Z,46.82
2022-10-12T10:53:51.758Z,46.83
2022-10-12T10:56:38.066Z,46.52
2022-10-12T11:00:02.212Z,46.58
2022-10-12T11:02:53.445Z,46.33
2022-10-12T11:05:44.582Z,45.70
2022-10-12T11:08:30.783Z,45.23
2022-10-12T11:11:22.803Z,45.07
2022-10-12T11:14:16.285Z,44.94
2022-10-12T11:17:07.636Z,44.65
2022-10-12T11:20:18.844Z,43.91
2022-10-12T11:23:18.751Z,42.27
2022-10-12T11:26:20.026Z,41.26
2022-10-12T11:29:07.235Z,39.92
2022-10-12T11:31:57.658Z,38.65
2022-10-12T11:34:51.661Z,38.41
2022-10-12T11:37:45.392Z,38.74
2022-10-12T11:55:36.892Z,35.75
2022-10-12T11:58:56.094Z,35.01
2022-10-12T12:01:51.967Z,35.35
2022-10-12T12:04:43.196Z,35.29
2022-10-12T12:07:41.105Z,35.15
2022-10-12T12:10:37.067Z,35.16
2022-10-12T12:13:27.317Z,35.77
2022-10-12T12:28:25.431Z,38.90
2022-10-12T12:31:23.876Z,39.06
2022-10-12T12:34:14.472Z,39.25
2022-10-12T12:37:11.442Z,39.13
2022-10-12T12:39:58.539Z,39.81
2022-10-12T12:42:44.194Z,40.07
2022-10-12T12:45:32.934Z,40.43
2022-10-12T12:49:28.352Z,40.68
2022-10-12T12:52:38.523Z,40.89
2022-10-12T12:56:48.761Z,41.27
2022-10-12T13:00:17.239Z,41.60
2022-10-12T13:03:19.074Z,41.86
2022-10-12T13:06:32.825Z,42.02
2022-10-12T13:09:32.934Z,42.39
2022-10-12T13:12:49.860Z,42.48
2022-10-12T13:15:42.746Z,42.73
2022-10-12T13:18:52.097Z,42.64
2022-10-12T13:21:45.450Z,43.19
2022-10-12T13:24:50.416Z,42.91
2022-10-12T13:27:41.472Z,43.00
2022-10-12T13:30:32.972Z,43.05
2022-10-12T13:33:32.308Z,43.18
2022-10-12T13:36:25.602Z,42.89
2022-10-12T13:39:18.153Z,42.88
2022-10-12T13:42:04.565Z,43.14
2022-10-12T13:44:50.636Z,43.12
2022-10-12T13:47:43.150Z,42.90
2022-10-12T13:50:30.600Z,42.84
2022-10-12T13:53:16.819Z,42.81
2022-10-12T13:56:09.066Z,42.73
2022-10-12T13:59:00.709Z,42.76
2022-10-12T14:02:01.162Z,43.01
2022-10-12T14:04:47.411Z,42.94
2022-10-12T14:07:35.879Z,42.91
2022-10-12T14:10:51.408Z,42.78
2022-10-12T14:13:37.675Z,42.84
2022-10-12T14:16:23.637Z,42.86
2022-10-12T14:19:30.541Z,42.78
2022-10-12T14:22:35.104Z,42.59
2022-10-12T14:25:23.973Z,42.78
2022-10-12T14:28:26.578Z,42.51
2022-10-12T14:31:12.623Z,42.63
2022-10-12T14:34:26.971Z,42.60
2022-10-12T14:37:16.102Z,42.71
2022-10-12T14:40:26.074Z,42.67
2022-10-12T14:43:14.783Z,42.77
2022-10-12T14:46:00.909Z,42.90
2022-10-12T14:48:46.732Z,43.02
2022-10-12T14:51:33.247Z,43.18
2022-10-12T14:54:19.597Z,43.24
2022-10-12T14:57:16.292Z,43.21
2022-10-12T15:00:02.539Z,43.35
2022-10-12T15:02:48.939Z,43.58
2022-10-12T15:05:34.869Z,43.46
2022-10-12T15:08:20.924Z,43.71
2022-10-12T15:11:06.980Z,43.86
2022-10-12T15:13:53.112Z,43.96
2022-10-12T15:16:39.231Z,43.86
2022-10-12T15:19:25.290Z,44.07
2022-10-12T15:22:16.839Z,44.03
2022-10-12T15:25:06.366Z,44.08
2022-10-12T15:27:53.600Z,44.09
2022-10-12T15:30:57.685Z,44.23
2022-10-12T15:33:46.768Z,44.27
2022-10-12T15:36:33.027Z,44.42
2022-10-12T15:39:19.508Z,44.48
2022-10-12T15:42:05.661Z,44.46
2022-10-12T15:44:51.812Z,44.66
2022-10-12T15:47:37.672Z,44.68
2022-10-12T15:50:26.659Z,44.85
2022-10-12T15:53:22.284Z,44.76
2022-10-12T15:56:12.365Z,44.94
2022-10-12T15:58:58.329Z,44.83
2022-10-12T16:01:44.913Z,45.09
2022-10-12T16:04:30.678Z,45.03
2022-10-12T16:07:17.717Z,44.89
2022-10-12T16:10:04.125Z,45.08
2022-10-12T16:12:51.992Z,45.27
2022-10-12T16:15:38.447Z,45.42
2022-10-12T16:18:24.608Z,45.34
2022-10-12T16:21:11.434Z,45.43
2022-10-12T16:23:57.344Z,45.40
2022-10-12T16:26:45.111Z,45.42
2022-10-12T16:29:31.376Z,45.57
2022-10-12T16:32:17.424Z,45.54
2022-10-12T16:35:04.026Z,45.74
2022-10-12T16:37:50.921Z,45.67
2022-10-12T16:40:39.248Z,45.70
2022-10-12T16:43:25.367Z,45.80
2022-10-12T16:46:11.353Z,45.83
2022-10-12T16:48:57.417Z,45.95
2022-10-12T16:51:43.530Z,45.91
2022-10-12T16:54:29.762Z,45.89
2022-10-12T16:57:15.858Z,45.94
2022-10-12T17:00:02.453Z,46.08
2022-10-12T17:02:48.511Z,46.00
2022-10-12T17:05:34.949Z,46.01
2022-10-12T17:08:20.774Z,46.07
2022-10-12T17:11:10.873Z,46.32
2022-10-12T17:13:57.231Z,46.22
2022-10-12T17:16:49.411Z,46.27
2022-10-12T17:19:40.871Z,46.24
2022-10-12T17:22:26.652Z,46.26
2022-10-12T17:25:12.450Z,46.44
2022-10-12T17:27:58.314Z,46.34
2022-10-12T17:30:44.227Z,46.41
2022-10-12T17:33:30.225Z,46.46
2022-10-12T17:36:16.168Z,46.38
2022-10-12T17:39:03.320Z,46.51
2022-10-12T17:41:49.260Z,46.61
2022-10-12T17:44:35.342Z,46.43
2022-10-12T17:47:21.281Z,46.39
2022-10-12T17:50:07.524Z,46.72
2022-10-12T17:52:53.331Z,46.59
2022-10-12T17:55:58.835Z,46.70
2022-10-12T17:58:44.901Z,46.61
2022-10-12T18:01:32.006Z,46.97
2022-10-12T18:04:18.718Z,46.75
2022-10-12T18:07:04.637Z,46.72
2022-10-12T18:09:50.424Z,46.80
2022-10-12T18:12:36.557Z,46.88
2022-10-12T18:15:23.213Z,46.88
2022-10-12T18:18:14.281Z,46.85
2022-10-12T18:21:05.664Z,46.82
2022-10-12T18:23:51.868Z,46.89
2022-10-12T18:26:39.121Z,46.98
2022-10-12T18:29:25.325Z,46.89
2022-10-12T18:32:12.590Z,46.90
2022-10-12T18:34:58.527Z,47.00
2022-10-12T18:37:44.910Z,47.02
2022-10-12T18:40:30.937Z,47.17
2022-10-12T18:43:17.167Z,47.08
2022-10-12T18:46:11.246Z,47.27
2022-10-12T18:48:57.141Z,47.42
2022-10-12T18:51:47.243Z,47.40
2022-10-12T18:54:33.066Z,47.29
2022-10-12T18:57:19.062Z,47.17
2022-10-12T19:00:07.307Z,47.36
2022-10-12T19:03:05.701Z,47.24
2022-10-12T19:05:52.061Z,47.38
2022-10-12T19:08:38.611Z,47.37
2022-10-12T19:11:26.355Z,47.45
2022-10-12T19:14:14.304Z,47.48
2022-10-12T19:17:00.930Z,47.49
2022-10-12T19:19:46.946Z,47.59
2022-10-12T19:22:33.535Z,47.61
2022-10-12T19:25:19.433Z,47.43
2022-10-12T19:28:05.528Z,47.73
2022-10-12T19:30:51.319Z,47.62
2022-10-12T19:33:37.714Z,47.68
2022-10-12T19:36:24.285Z,47.72
2022-10-12T19:39:14.886Z,47.73
2022-10-12T19:42:00.814Z,47.68
2022-10-12T19:44:46.424Z,47.84
2022-10-12T19:47:32.362Z,47.64
2022-10-12T19:50:18.238Z,47.84
2022-10-12T19:53:04.525Z,47.86
2022-10-12T19:55:51.189Z,47.79
2022-10-12T19:58:37.464Z,47.72
2022-10-12T20:01:28.719Z,47.97
2022-10-12T20:04:14.875Z,47.88
2022-10-12T20:07:00.734Z,48.06
2022-10-12T20:09:46.890Z,48.13
2022-10-12T20:12:33.690Z,48.07
2022-10-12T20:15:19.507Z,48.01
2022-10-12T20:18:05.713Z,47.98
2022-10-12T20:20:51.917Z,48.17
2022-10-12T20:23:39.734Z,48.35
2022-10-12T20:26:26.301Z,48.17
2022-10-12T20:29:12.474Z,48.28
2022-10-12T20:31:58.450Z,48.26
2022-10-12T20:34:44.349Z,48.36
2022-10-12T20:37:32.495Z,48.10
2022-10-12T20:40:18.854Z,48.25
2022-10-12T20:43:04.902Z,48.29
2022-10-12T20:45:50.812Z,48.42
2022-10-12T20:48:39.692Z,48.26
2022-10-12T20:51:44.473Z,48.53
2022-10-12T20:54:30.670Z,48.42
2022-10-12T20:57:16.843Z,48.65
2022-10-12T21:00:03.641Z,48.40
2022-10-12T21:02:49.452Z,48.44
2022-10-12T21:05:35.469Z,48.67
2022-10-12T21:08:21.770Z,48.64
2022-10-12T21:11:08.529Z,48.60
2022-10-12T21:13:54.790Z,48.52
2022-10-12T21:16:40.697Z,48.54
2022-10-12T21:19:26.737Z,48.68
2022-10-12T21:22:12.407Z,48.71
2022-10-12T21:24:58.188Z,48.77
2022-10-12T21:27:47.504Z,48.74
2022-10-12T21:30:33.133Z,48.69
2022-10-12T21:33:19.544Z,48.84
2022-10-12T21:36:18.862Z,48.85
2022-10-12T21:39:22.997Z,48.99
2022-10-12T21:42:08.918Z,48.80
2022-10-12T21:44:54.590Z,49.07
2022-10-12T21:47:40.401Z,48.99
2022-10-12T21:50:26.819Z,48.82
2022-10-12T21:53:13.817Z,48.98
2022-10-12T21:55:59.669Z,48.98
2022-10-12T21:58:46.106Z,49.27
2022-10-12T22:01:41.298Z,49.03
2022-10-12T22:04:27.545Z,49.28
2022-10-12T22:07:13.597Z,49.29
2022-10-12T22:09:59.412Z,49.23
2022-10-12T22:12:45.240Z,49.08
2022-10-12T22:15:30.937Z,49.11
2022-10-12T22:18:17.363Z,49.24
2022-10-12T22:21:04.803Z,49.10
2022-10-12T22:23:50.714Z,49.39
2022-10-12T22:26:36.821Z,49.46
2022-10-12T22:29:26.545Z,49.21
2022-10-12T22:32:14.602Z,49.43
2022-10-12T22:35:00.648Z,49.56
2022-10-12T22:37:46.230Z,49.42
2022-10-12T22:40:32.689Z,49.35
2022-10-12T22:43:18.667Z,49.37
2022-10-12T22:46:04.513Z,49.61
2022-10-12T22:48:50.562Z,49.47
2022-10-12T22:51:40.938Z,49.55
2022-10-12T22:54:26.963Z,49.74
2022-10-12T22:57:12.704Z,49.60
2022-10-12T22:59:58.542Z,49.58
2022-10-12T23:02:49.863Z,49.37
2022-10-12T23:05:35.471Z,49.78
2022-10-12T23:08:21.213Z,49.73
2022-10-12T23:11:09.997Z,49.83
2022-10-12T23:13:56.704Z,49.54
2022-10-12T23:16:42.387Z,49.91
2022-10-12T23:19:28.363Z,49.56
2022-10-12T23:22:13.901Z,49.64
2022-10-12T23:24:59.643Z,49.82
2022-10-12T23:27:45.523Z,49.64
2022-10-12T23:30:31.309Z,49.76
2022-10-12T23:33:17.023Z,49.93
2022-10-12T23:36:07.894Z,49.75
2022-10-12T23:38:56.152Z,50.01
2022-10-12T23:41:42.125Z,49.81
2022-10-12T23:44:28.227Z,49.81
2022-10-12T23:47:13.955Z,49.88
2022-10-12T23:49:59.657Z,49.95
2022-10-12T23:52:45.336Z,50.14
2022-10-12T23:55:32.432Z,50.16
2022-10-12T23:58:18.379Z,49.93
